Time;durP1;ratioP1;P1;durP2;ratioP2;P2;SDS_P1;SDS_P2;PMS_P1;PMS_P2;Temp;Humidity;BMP_temperature;BMP_pressure;BME280_temperature;BME280_humidity;BME280_pressure;Samples;Min_cycle;Max_cycle;Signal;HPM_P1;HPM_P2
2023/08/01 00:01:08;;;;;;;;;;;;;;;24.97;49.06;100129.03;5059222;28;19928;-82
2023/08/01 00:03:33;;;;;;;;;;;;;;;24.98;48.81;100123.19;5062238;28;19920;-82
2023/08/01 00:05:58;;;;;;;;;;;;;;;24.99;48.80;100115.75;5055606;28;19916;-82
2023/08/01 00:08:24;;;;;;;;;;;;;;;24.98;48.89;100122.41;5065733;28;19969;-82
2023/08/01 00:10:49;;;;;;;;;;;;;;;25.00;48.86;100112.69;5063022;28;19920;-82
2023/08/01 00:13:14;;;;;;;;;;;;;;;25.04;49.01;100101.00;5067409;28;19916;-82
2023/08/01 00:15:40;;;;;;;;;;;;;;;25.10;48.93;100096.81;5066666;28;20399;-82
2023/08/01 00:18:05;;;;;;;;;;;;;;;25.15;48.76;100094.59;5062815;28;20054;-82
2023/08/01 00:20:30;;;;;;;;;;;;;;;25.17;48.75;100095.03;5056986;28;19999;-82
2023/08/01 00:22:56;;;;;;;;;;;;;;;25.19;48.76;100084.47;5063511;28;19952;-82
2023/08/01 00:25:21;;;;;;;;;;;;;;;25.17;48.86;100078.56;5059148;28;19917;-82
2023/08/01 00:27:47;;;;;;;;;;;;;;;25.17;48.91;100078.56;5066715;28;19917;-82
2023/08/01 00:30:12;;;;;;;;;;;;;;;25.18;48.88;100074.66;5058565;28;19917;-82
2023/08/01 00:32:37;;;;;;;;;;;;;;;25.19;48.91;100068.03;5059103;28;20003;-82
2023/08/01 00:35:03;;;;;;;;;;;;;;;25.18;48.95;100073.88;5063252;28;20372;-82
2023/08/01 00:37:28;;;;;;;;;;;;;;;25.17;48.76;100064.88;5058751;28;20007;-82
2023/08/01 00:39:53;;;;;;;;;;;;;;;25.17;49.02;100064.06;5064958;28;19927;-82
2023/08/01 00:42:19;;;;;;;;;;;;;;;25.15;48.91;100063.66;5056034;28;19917;-82
2023/08/01 00:44:46;;;;;;;;;;;;;;;25.11;48.99;100077.25;5066440;28;19960;-82
2023/08/01 00:47:12;;;;;;;;;;;;;;;25.05;48.64;100065.00;5071694;28;19920;-82
2023/08/01 00:49:37;;;;;;;;;;;;;;;25.00;49.23;100057.88;5064260;28;19924;-82
2023/08/01 00:52:03;;;;;;;;;;;;;;;25.02;49.04;100063.00;5064857;28;19967;-82
2023/08/01 00:54:34;;;;;;;;;;;;;;;25.01;49.13;100064.16;5062778;28;20461;-82
2023/08/01 00:57:00;;;;;;;;;;;;;;;24.97;49.12;100049.56;5062185;28;19943;-82
2023/08/01 00:59:25;;;;;;;;;;;;;;;24.93;49.27;100048.69;5063851;28;20668;-82
2023/08/01 01:01:50;;;;;;;;;;;;;;;24.91;49.31;100042.78;5067972;28;20406;-82
2023/08/01 01:04:16;;;;;;;;;;;;;;;24.89;49.35;100031.38;5065990;28;19931;-82
2023/08/01 01:06:45;;;;;;;;;;;;;;;24.91;49.17;100026.31;5065659;28;20511;-82
2023/08/01 01:09:14;;;;;;;;;;;;;;;24.87;49.17;100012.56;5065086;28;19921;-82
2023/08/01 01:11:40;;;;;;;;;;;;;;;24.85;49.40;100005.88;5064016;28;19932;-82
2023/08/01 01:14:05;;;;;;;;;;;;;;;24.81;49.30;100000.31;5066397;28;19916;-82
2023/08/01 01:16:30;;;;;;;;;;;;;;;24.70;49.43;99985.63;5066067;28;19990;-82
2023/08/01 01:18:56;;;;;;;;;;;;;;;24.63;49.52;99989.00;5070430;28;20343;-82
2023/08/01 01:24:24;;;;;;;;;;;;;;;24.56;49.67;99977.91;5061833;28;19924;-82
2023/08/01 01:26:50;;;;;;;;;;;;;;;24.51;49.69;99975.47;5070234;28;19964;-82
2023/08/01 01:29:16;;;;;;;;;;;;;;;24.47;49.77;99968.31;5065095;28;19971;-81
2023/08/01 01:31:41;;;;;;;;;;;;;;;24.45;49.73;99974.16;5056046;28;19924;-82
2023/08/01 01:34:07;;;;;;;;;;;;;;;24.47;50.10;99966.38;5057882;28;19923;-82
2023/08/01 01:41:35;;;;;;;;;;;;;;;24.56;49.88;99961.47;5025259;28;20423;-83
2023/08/01 01:44:01;;;;;;;;;;;;;;;24.56;50.01;99952.47;5023744;28;19925;-84
2023/08/01 01:46:26;;;;;;;;;;;;;;;24.58;50.07;99939.19;5032658;28;19921;-83
2023/08/01 01:48:51;;;;;;;;;;;;;;;24.58;50.04;99928.25;5027453;28;19953;-83
2023/08/01 01:51:17;;;;;;;;;;;;;;;24.59;50.17;99922.41;5029449;28;20448;-83
2023/08/01 01:53:42;;;;;;;;;;;;;;;24.60;49.92;99923.22;5024424;28;19917;-83
2023/08/01 01:56:07;;;;;;;;;;;;;;;24.54;49.97;99921.91;5024036;28;20392;-84
2023/08/01 01:58:33;;;;;;;;;;;;;;;24.50;50.19;99910.91;5027168;28;19917;-83
2023/08/01 02:00:58;;;;;;;;;;;;;;;24.49;50.25;99909.31;5027794;28;19925;-83
2023/08/01 02:03:23;;;;;;;;;;;;;;;24.47;50.15;99905.34;5030131;28;19925;-83
2023/08/01 02:05:48;;;;;;;;;;;;;;;24.45;50.34;99904.94;5009516;28;20016;-83
2023/08/01 02:08:14;;;;;;;;;;;;;;;24.43;50.31;99899.81;5030763;28;19917;-83
2023/08/01 02:10:39;;;;;;;;;;;;;;;24.41;50.28;99902.88;5030983;28;20404;-83
2023/08/01 02:13:04;;;;;;;;;;;;;;;24.39;50.22;99910.66;5014164;28;19928;-83
2023/08/01 02:15:30;;;;;;;;;;;;;;;24.32;50.22;99913.28;5034756;28;19925;-83
2023/08/01 02:17:56;;;;;;;;;;;;;;;24.23;50.28;99906.38;5027192;28;19920;-83
2023/08/01 02:20:21;;;;;;;;;;;;;;;24.17;50.61;99905.91;5026242;28;20373;-83
2023/08/01 02:22:46;;;;;;;;;;;;;;;24.14;50.83;99895.66;5018789;28;20500;-83
2023/08/01 02:25:12;;;;;;;;;;;;;;;24.15;50.60;99896.47;5024409;28;19978;-83
2023/08/01 02:27:37;;;;;;;;;;;;;;;24.13;50.62;99896.81;5019735;28;19949;-84
2023/08/01 02:30:02;;;;;;;;;;;;;;;24.07;50.79;99890.06;5025704;28;19925;-83
2023/08/01 02:32:28;;;;;;;;;;;;;;;24.06;50.68;99880.28;5022084;28;19983;-83
2023/08/01 02:34:53;;;;;;;;;;;;;;;24.04;50.61;99875.13;5026093;28;19917;-83
2023/08/01 02:37:18;;;;;;;;;;;;;;;23.99;50.92;99872.69;5018830;28;19960;-83
2023/08/01 02:39:44;;;;;;;;;;;;;;;23.99;50.88;99869.16;5029388;28;19917;-83
2023/08/01 02:42:09;;;;;;;;;;;;;;;23.92;51.13;99866.28;5021256;28;19927;-82
2023/08/01 02:44:34;;;;;;;;;;;;;;;23.93;51.18;99863.19;5022499;28;20396;-82
2023/08/01 02:47:00;;;;;;;;;;;;;;;23.89;51.25;99864.28;5024109;28;19987;-82
2023/08/01 02:49:25;;;;;;;;;;;;;;;23.88;51.21;99870.88;5025776;28;20000;-82
2023/08/01 02:51:50;;;;;;;;;;;;;;;23.79;51.27;99858.19;5012462;28;19921;-82
2023/08/01 02:54:16;;;;;;;;;;;;;;;23.80;51.53;99854.31;5025248;28;19925;-82
2023/08/01 02:56:41;;;;;;;;;;;;;;;23.78;51.49;99851.16;5026222;28;19929;-82
2023/08/01 02:59:08;;;;;;;;;;;;;;;23.81;51.64;99844.94;5024664;28;20044;-82
2023/08/01 03:01:34;;;;;;;;;;;;;;;23.84;51.53;99845.38;5026475;28;19924;-82
2023/08/01 03:03:59;;;;;;;;;;;;;;;23.85;51.52;99849.69;5008686;28;19921;-82
2023/08/01 03:06:24;;;;;;;;;;;;;;;23.89;51.42;99845.91;5025802;28;19928;-83
2023/08/01 03:08:51;;;;;;;;;;;;;;;23.87;51.53;99830.97;5027735;28;19928;-83
2023/08/01 03:11:16;;;;;;;;;;;;;;;23.84;51.68;99828.97;5020578;28;19948;-83
2023/08/01 03:13:41;;;;;;;;;;;;;;;23.86;51.61;99827.47;5019705;28;19917;-83
2023/08/01 03:16:07;;;;;;;;;;;;;;;23.85;51.76;99839.56;5021303;28;20364;-83
2023/08/01 03:18:32;;;;;;;;;;;;;;;23.87;51.60;99831.78;5020745;28;19952;-83
2023/08/01 03:20:57;;;;;;;;;;;;;;;23.89;51.73;99824.03;5021263;28;20036;-83
2023/08/01 03:23:23;;;;;;;;;;;;;;;23.92;51.62;99825.25;5027175;28;20002;-83
2023/08/01 03:25:48;;;;;;;;;;;;;;;23.88;51.86;99822.44;5022623;28;19921;-83
2023/08/01 03:28:14;;;;;;;;;;;;;;;23.86;51.99;99810.25;5016962;28;20004;-83
2023/08/01 03:30:39;;;;;;;;;;;;;;;23.90;51.86;99811.13;5018941;28;19926;-83
2023/08/01 03:33:04;;;;;;;;;;;;;;;23.90;51.94;99816.63;5023228;28;19920;-83
2023/08/01 03:35:30;;;;;;;;;;;;;;;23.91;52.08;99807.25;5020025;28;19925;-83
2023/08/01 03:37:55;;;;;;;;;;;;;;;23.93;51.97;99805.72;5003223;28;19917;-83
2023/08/01 03:40:21;;;;;;;;;;;;;;;23.94;51.84;99801.06;5002363;28;19917;-83
2023/08/01 03:42:46;;;;;;;;;;;;;;;23.88;52.34;99799.75;5020265;28;20000;-83
2023/08/01 03:45:11;;;;;;;;;;;;;;;23.81;52.59;99792.97;5021190;28;20320;-83
2023/08/01 03:47:37;;;;;;;;;;;;;;;23.80;52.31;99787.88;5021655;28;19917;-84
2023/08/01 03:50:02;;;;;;;;;;;;;;;23.75;52.57;99790.91;5022807;28;20774;-84
2023/08/01 03:52:28;;;;;;;;;;;;;;;23.75;52.52;99780.75;5002677;28;19936;-84
2023/08/01 03:54:54;;;;;;;;;;;;;;;23.75;52.72;99783.50;5024801;28;20000;-84
2023/08/01 03:57:20;;;;;;;;;;;;;;;23.74;52.81;99773.72;5023738;28;19925;-84
2023/08/01 03:59:46;;;;;;;;;;;;;;;23.76;52.78;99778.81;5024166;28;19924;-84
2023/08/01 04:02:11;;;;;;;;;;;;;;;23.77;52.80;99774.94;5021783;28;20400;-84
2023/08/01 04:04:36;;;;;;;;;;;;;;;23.78;52.86;99773.78;5021935;28;19917;-83
2023/08/01 04:07:02;;;;;;;;;;;;;;;23.80;52.67;99775.00;5028638;28;19928;-84
2023/08/01 04:09:27;;;;;;;;;;;;;;;23.80;52.53;99775.00;5024407;28;20023;-83
2023/08/01 04:11:52;;;;;;;;;;;;;;;23.80;52.88;99764.06;5020569;28;19960;-83
2023/08/01 04:14:17;;;;;;;;;;;;;;;23.85;52.82;99764.91;5026509;28;19921;-84
2023/08/01 04:16:43;;;;;;;;;;;;;;;23.84;52.96;99761.38;5025490;28;19917;-83
2023/08/01 04:19:09;;;;;;;;;;;;;;;23.87;52.92;99762.59;5028328;28;20368;-83
2023/08/01 04:21:34;;;;;;;;;;;;;;;23.87;52.85;99755.19;5025133;28;19924;-83
2023/08/01 04:24:00;;;;;;;;;;;;;;;23.89;52.86;99754.84;5033751;28;19921;-84
2023/08/01 04:26:25;;;;;;;;;;;;;;;23.91;52.64;99744.34;5030747;28;20043;-82
2023/08/01 04:28:50;;;;;;;;;;;;;;;23.90;52.61;99748.22;5028150;28;20399;-83
2023/08/01 04:31:16;;;;;;;;;;;;;;;23.90;52.98;99753.69;5030348;28;20003;-82
2023/08/01 04:33:41;;;;;;;;;;;;;;;23.93;52.82;99751.03;5012991;28;19921;-83
2023/08/01 04:36:06;;;;;;;;;;;;;;;23.93;52.92;99748.28;5006376;28;19943;-83
2023/08/01 04:38:32;;;;;;;;;;;;;;;23.98;52.73;99744.47;5022505;28;19932;-83
2023/08/01 04:40:57;;;;;;;;;;;;;;;24.04;52.36;99749.25;5022576;28;19959;-85
2023/08/01 04:43:22;;;;;;;;;;;;;;;23.94;52.79;99743.59;5021137;28;20526;-83
2023/08/01 04:45:47;;;;;;;;;;;;;;;23.95;52.84;99740.50;5026208;28;19924;-83
2023/08/01 04:48:13;;;;;;;;;;;;;;;23.94;52.94;99732.66;5024868;28;19921;-84
2023/08/01 04:50:38;;;;;;;;;;;;;;;23.96;53.11;99730.34;5022635;28;19917;-83
2023/08/01 04:53:03;;;;;;;;;;;;;;;23.96;53.08;99733.88;5022895;28;19921;-83
2023/08/01 04:55:29;;;;;;;;;;;;;;;24.00;52.92;99729.25;5022012;28;19917;-83
2023/08/01 04:57:54;;;;;;;;;;;;;;;24.03;53.01;99730.47;5022754;28;19953;-85
2023/08/01 05:00:19;;;;;;;;;;;;;;;24.03;53.01;99731.25;5022435;28;20343;-84
2023/08/01 05:02:45;;;;;;;;;;;;;;;24.05;52.98;99723.47;5026138;28;19921;-84
2023/08/01 05:05:10;;;;;;;;;;;;;;;24.07;52.92;99723.94;5027149;28;19928;-84
2023/08/01 05:07:35;;;;;;;;;;;;;;;24.09;52.95;99718.09;5021984;28;19959;-84
2023/08/01 05:10:01;;;;;;;;;;;;;;;24.16;52.96;99720.16;5026398;28;19983;-85
2023/08/01 05:12:26;;;;;;;;;;;;;;;24.22;52.86;99721.44;5028363;28;19925;-84
2023/08/01 05:14:51;;;;;;;;;;;;;;;24.27;52.92;99723.88;5010796;28;20487;-85
2023/08/01 05:17:16;;;;;;;;;;;;;;;24.32;52.69;99727.13;5024263;28;19932;-84
2023/08/01 05:19:42;;;;;;;;;;;;;;;24.33;52.59;99720.50;5008757;28;19957;-83
2023/08/01 05:22:07;;;;;;;;;;;;;;;24.27;52.78;99713.72;5024801;28;21145;-84
2023/08/01 05:24:32;;;;;;;;;;;;;;;24.29;52.81;99722.38;5032071;28;20027;-83
2023/08/01 05:26:58;;;;;;;;;;;;;;;24.33;52.90;99715.03;5025562;28;20380;-83
2023/08/01 05:29:23;;;;;;;;;;;;;;;24.39;52.77;99715.50;5024262;28;19928;-83
2023/08/01 05:31:48;;;;;;;;;;;;;;;24.45;52.81;99722.28;5022728;28;19921;-83
2023/08/01 05:34:14;;;;;;;;;;;;;;;24.46;52.77;99709.38;5024483;28;20007;-83
2023/08/01 05:36:39;;;;;;;;;;;;;;;24.49;52.53;99709.44;5026888;28;19917;-82
2023/08/01 05:39:04;;;;;;;;;;;;;;;24.47;52.57;99705.47;5027046;28;19917;-83
2023/08/01 05:41:30;;;;;;;;;;;;;;;24.45;53.02;99705.84;5017164;28;19928;-83
2023/08/01 05:43:55;;;;;;;;;;;;;;;24.46;52.55;99704.69;5003678;28;19917;-83
2023/08/01 05:46:21;;;;;;;;;;;;;;;24.47;52.61;99703.53;5023333;28;19917;-82
2023/08/01 05:48:46;;;;;;;;;;;;;;;24.44;52.74;99701.53;5022701;28;19917;-83
2023/08/01 05:51:11;;;;;;;;;;;;;;;24.44;52.51;99696.06;5023957;28;19925;-84
2023/08/01 05:53:37;;;;;;;;;;;;;;;24.41;52.72;99700.28;5025878;28;19924;-84
2023/08/01 05:56:02;;;;;;;;;;;;;;;24.44;52.56;99690.56;5004350;28;19931;-83
2023/08/01 05:58:27;;;;;;;;;;;;;;;24.47;52.64;99691.78;5022396;28;20403;-83
2023/08/01 06:00:53;;;;;;;;;;;;;;;24.52;52.53;99692.25;5020608;28;20280;-82
2023/08/01 06:03:18;;;;;;;;;;;;;;;24.55;52.56;99685.25;5025310;28;19945;-83
2023/08/01 06:05:43;;;;;;;;;;;;;;;24.55;52.63;99685.25;5025708;28;19917;-84
2023/08/01 06:08:09;;;;;;;;;;;;;;;24.57;52.43;99693.88;5026718;28;21373;-83
2023/08/01 06:10:34;;;;;;;;;;;;;;;24.58;52.41;99679.03;5019654;28;19928;-84
2023/08/01 06:13:00;;;;;;;;;;;;;;;24.62;52.33;99685.38;5021242;28;19971;-83
2023/08/01 06:15:25;;;;;;;;;;;;;;;24.61;52.35;99681.84;5022757;28;19921;-84
2023/08/01 06:17:50;;;;;;;;;;;;;;;24.66;52.44;99678.00;5000620;28;19917;-84
2023/08/01 06:20:16;;;;;;;;;;;;;;;24.70;52.28;99676.09;5028363;28;19964;-85
2023/08/01 06:22:41;;;;;;;;;;;;;;;24.72;52.21;99679.25;5023810;28;20443;-85
2023/08/01 06:25:07;;;;;;;;;;;;;;;24.77;52.02;99669.91;5022485;28;19923;-84
2023/08/01 06:27:32;;;;;;;;;;;;;;;24.78;52.06;99671.53;5009725;28;20512;-84
2023/08/01 06:29:57;;;;;;;;;;;;;;;24.78;52.12;99672.31;5024801;28;20305;-84
2023/08/01 06:32:22;;;;;;;;;;;;;;;24.80;52.12;99672.75;5022678;28;19994;-85
2023/08/01 06:34:48;;;;;;;;;;;;;;;24.84;52.25;99673.56;5019108;28;19917;-84
2023/08/01 06:37:13;;;;;;;;;;;;;;;24.86;52.14;99668.50;5022847;28;20686;-84
2023/08/01 06:39:38;;;;;;;;;;;;;;;24.88;52.09;99668.13;5023190;28;20288;-84
2023/08/01 06:42:04;;;;;;;;;;;;;;;24.92;52.06;99664.28;5000266;28;19976;-84
2023/08/01 06:44:29;;;;;;;;;;;;;;;25.02;51.98;99662.91;5018590;28;19928;-84
2023/08/01 06:46:54;;;;;;;;;;;;;;;25.08;51.79;99668.81;5022927;28;20306;-83
2023/08/01 06:49:20;;;;;;;;;;;;;;;25.15;51.73;99675.22;5022898;28;19948;-83
2023/08/01 06:51:45;;;;;;;;;;;;;;;25.17;51.59;99666.63;5021710;28;20273;-83
2023/08/01 06:54:10;;;;;;;;;;;;;;;25.17;51.58;99661.13;5016937;28;20056;-83
2023/08/01 06:56:36;;;;;;;;;;;;;;;25.20;51.64;99660.38;5021409;28;20384;-83
2023/08/01 06:59:01;;;;;;;;;;;;;;;25.23;51.50;99662.38;5021738;28;19928;-83
2023/08/01 07:01:26;;;;;;;;;;;;;;;25.23;51.36;99665.91;5018388;28;19921;-83
2023/08/01 07:03:52;;;;;;;;;;;;;;;25.22;51.40;99660.78;5021731;28;19990;-83
2023/08/01 07:06:17;;;;;;;;;;;;;;;25.26;51.32;99654.19;5004744;28;20685;-83
2023/08/01 07:08:43;;;;;;;;;;;;;;;25.26;51.43;99658.88;5020507;28;20381;-83
2023/08/01 07:11:08;;;;;;;;;;;;;;;25.29;51.35;99669.88;5022143;28;19925;-84
2023/08/01 07:13:33;;;;;;;;;;;;;;;25.25;51.13;99658.09;5021930;28;19928;-84
2023/08/01 07:15:58;;;;;;;;;;;;;;;25.21;51.42;99657.25;5021169;28;20420;-84
2023/08/01 07:18:24;;;;;;;;;;;;;;;25.20;51.48;99661.16;5023335;28;19924;-84
2023/08/01 07:20:59;;;;;;;;;;;;;;;25.23;51.25;99665.13;5020724;28;19922;-84
2023/08/01 07:23:24;;;;;;;;;;;;;;;25.25;51.36;99665.53;5021439;28;19922;-84
2023/08/01 07:25:49;;;;;;;;;;;;;;;25.30;51.31;99654.22;5017048;28;20659;-84
2023/08/01 07:28:15;;;;;;;;;;;;;;;25.34;50.94;99665.25;5018216;28;19956;-85
2023/08/01 07:30:40;;;;;;;;;;;;;;;25.27;51.21;99658.50;5013728;28;19971;-85
2023/08/01 07:33:05;;;;;;;;;;;;;;;25.26;51.04;99658.88;5023963;28;20009;-83
2023/08/01 07:35:30;;;;;;;;;;;;;;;25.25;51.14;99660.84;5021246;28;20526;-83
2023/08/01 07:37:56;;;;;;;;;;;;;;;25.20;51.18;99663.91;5020760;28;19964;-83
2023/08/01 07:40:21;;;;;;;;;;;;;;;25.11;51.39;99655.16;5015771;28;20096;-83
2023/08/01 07:42:46;;;;;;;;;;;;;;;25.15;51.35;99657.97;5025767;28;19925;-83
2023/08/01 07:45:12;;;;;;;;;;;;;;;25.16;51.24;99651.34;5004234;28;19983;-83
2023/08/01 07:47:37;;;;;;;;;;;;;;;25.16;51.21;99651.34;5019693;28;19975;-82
2023/08/01 07:50:02;;;;;;;;;;;;;;;25.19;51.33;99648.63;5017103;28;19927;-81
2023/08/01 07:52:28;;;;;;;;;;;;;;;25.22;51.03;99650.63;5021975;28;19932;-82
2023/08/01 07:54:55;;;;;;;;;;;;;;;25.23;51.28;99651.41;5026797;28;20017;-82
2023/08/01 07:57:20;;;;;;;;;;;;;;;25.22;51.12;99650.63;5024422;28;19932;-82
2023/08/01 07:59:46;;;;;;;;;;;;;;;25.22;51.38;99658.06;5004649;28;19920;-81
2023/08/01 08:02:11;;;;;;;;;;;;;;;25.21;51.39;99646.31;5024910;28;20023;-81
2023/08/01 08:04:36;;;;;;;;;;;;;;;25.23;51.41;99643.97;5024152;28;19917;-81
2023/08/01 08:07:02;;;;;;;;;;;;;;;25.31;51.15;99642.09;5026100;28;19924;-82
2023/08/01 08:09:27;;;;;;;;;;;;;;;25.34;51.27;99644.13;5010427;28;19920;-82
2023/08/01 08:11:52;;;;;;;;;;;;;;;25.40;51.07;99645.34;5021374;28;19921;-82
2023/08/01 08:14:20;;;;;;;;;;;;;;;25.41;50.74;99638.69;5025125;28;19967;-83
2023/08/01 08:16:45;;;;;;;;;;;;;;;25.34;51.00;99632.34;5018397;28;19947;-83
2023/08/01 08:19:11;;;;;;;;;;;;;;;25.35;50.98;99628.44;5020225;28;20380;-83
2023/08/01 08:21:36;;;;;;;;;;;;;;;25.36;51.01;99630.81;5026200;28;19917;-82
2023/08/01 08:24:01;;;;;;;;;;;;;;;25.37;51.19;99628.88;5022780;28;19925;-83
2023/08/01 08:26:26;;;;;;;;;;;;;;;25.45;51.12;99630.50;5028367;28;19921;-82
2023/08/01 08:28:52;;;;;;;;;;;;;;;25.44;50.98;99626.19;5022554;28;19925;-83
2023/08/01 08:31:17;;;;;;;;;;;;;;;25.40;50.82;99631.63;5026584;28;20020;-84
2023/08/01 08:33:42;;;;;;;;;;;;;;;25.38;50.98;99625.75;5029346;28;19917;-85
2023/08/01 08:36:08;;;;;;;;;;;;;;;25.36;51.01;99636.31;5024851;28;20351;-84
2023/08/01 08:38:33;;;;;;;;;;;;;;;25.40;51.12;99631.63;5025472;28;19920;-84
2023/08/01 08:41:07;;;;;;;;;;;;;;;25.44;50.92;99629.72;5022644;28;19924;-84
2023/08/01 08:43:33;;;;;;;;;;;;;;;25.43;50.94;99630.88;5020938;28;19994;-85
2023/08/01 08:46:00;;;;;;;;;;;;;;;25.49;50.78;99628.59;5010676;28;19956;-85
2023/08/01 08:48:25;;;;;;;;;;;;;;;25.53;50.95;99624.75;5021489;28;19970;-85
2023/08/01 08:50:51;;;;;;;;;;;;;;;25.58;50.78;99626.34;5027983;28;19925;-87
2023/08/01 08:53:17;;;;;;;;;;;;;;;25.63;50.94;99628.75;5026823;28;19924;-86
2023/08/01 08:55:43;;;;;;;;;;;;;;;25.69;50.64;99626.50;5029810;28;19921;-85
2023/08/01 08:58:08;;;;;;;;;;;;;;;25.72;50.61;99623.78;5024553;28;19924;-84
2023/08/01 09:00:37;;;;;;;;;;;;;;;25.73;50.56;99632.81;5009981;28;19975;-83
2023/08/01 09:03:03;;;;;;;;;;;;;;;25.77;50.54;99626.19;5025810;28;19918;-85
2023/08/01 09:05:30;;;;;;;;;;;;;;;25.81;50.37;99624.25;5023776;28;19928;-84
2023/08/01 09:07:56;;;;;;;;;;;;;;;25.83;50.48;99619.19;5033459;28;19917;-87
2023/08/01 09:10:22;;;;;;;;;;;;;;;25.88;50.46;99616.09;5026693;28;19932;-86
2023/08/01 09:12:48;;;;;;;;;;;;;;;25.95;50.41;99617.31;5026941;28;19921;-83
2023/08/01 09:15:13;;;;;;;;;;;;;;;26.01;50.17;99619.34;5025168;28;20404;-82
2023/08/01 09:17:51;;;;;;;;;;;;;;;26.08;50.33;99615.88;5022197;28;20547;-83
2023/08/01 09:20:17;;;;;;;;;;;;;;;26.17;50.12;99614.38;5026968;28;19971;-82
2023/08/01 09:22:46;;;;;;;;;;;;;;;26.26;50.14;99610.53;5020105;28;19925;-82
2023/08/01 09:25:12;;;;;;;;;;;;;;;26.41;49.95;99598.50;5020535;28;19933;-81
2023/08/01 09:27:37;;;;;;;;;;;;;;;26.59;49.83;99591.16;5010358;28;19917;-81
2023/08/01 09:30:15;;;;;;;;;;;;;;;26.74;49.20;99603.78;5024966;28;20016;-82
2023/08/01 09:32:50;;;;;;;;;;;;;;;26.77;48.90;99603.03;5025870;28;19924;-82
2023/08/01 09:35:15;;;;;;;;;;;;;;;26.87;48.78;99593.25;5031691;28;20654;-83
2023/08/01 09:37:42;;;;;;;;;;;;;;;26.89;48.92;99592.88;5024120;28;19924;-83
2023/08/01 09:40:08;;;;;;;;;;;;;;;26.89;48.63;99590.91;5017113;28;19971;-83
2023/08/01 09:42:43;;;;;;;;;;;;;;;26.91;48.71;99596.81;5019811;28;19925;-82
2023/08/01 09:45:13;;;;;;;;;;;;;;;26.91;48.62;99599.56;5026463;28;19917;-84
2023/08/01 09:47:39;;;;;;;;;;;;;;;26.87;48.18;99597.97;5028615;28;19961;-82
2023/08/01 09:50:04;;;;;;;;;;;;;;;26.79;48.38;99591.66;5023546;28;20422;-82
2023/08/01 09:52:30;;;;;;;;;;;;;;;26.79;48.42;99583.41;4998830;28;19933;-80
2023/08/01 09:54:55;;;;;;;;;;;;;;;26.82;48.29;99584.59;5021166;28;20004;-82
2023/08/01 09:57:21;;;;;;;;;;;;;;;26.88;48.52;99585.81;5014524;28;19929;-81
2023/08/01 09:59:47;;;;;;;;;;;;;;;27.02;48.30;99583.94;5019963;28;19980;-81
2023/08/01 10:02:15;;;;;;;;;;;;;;;27.13;47.97;99581.25;5024853;28;20319;-81
2023/08/01 10:04:41;;;;;;;;;;;;;;;27.17;48.02;99573.78;5023640;28;19988;-82
2023/08/01 10:07:08;;;;;;;;;;;;;;;27.30;48.34;99575.00;5020485;28;19927;-83
2023/08/01 10:09:35;;;;;;;;;;;;;;;27.49;47.28;99567.59;5002219;28;19925;-82
2023/08/01 10:12:01;;;;;;;;;;;;;;;27.55;47.17;99561.28;5025283;28;19936;-83
2023/08/01 10:14:27;;;;;;;;;;;;;;;27.69;47.33;99558.59;5022750;28;19975;-82
2023/08/01 10:16:53;;;;;;;;;;;;;;;27.78;47.16;99557.41;5022716;28;20813;-83
2023/08/01 10:19:19;;;;;;;;;;;;;;;27.78;46.84;99560.94;5023988;28;19929;-83
2023/08/01 10:21:46;;;;;;;;;;;;;;;27.80;47.35;99546.78;5020401;28;19984;-83
2023/08/01 10:24:12;;;;;;;;;;;;;;;27.85;46.83;99560.97;5004681;28;19943;-81
2023/08/01 10:26:37;;;;;;;;;;;;;;;27.92;46.65;99566.47;5027006;28;19972;-82
2023/08/01 10:29:03;;;;;;;;;;;;;;;28.05;46.17;99568.81;5003987;28;19925;-82
2023/08/01 10:31:28;;;;;;;;;;;;;;;28.07;46.01;99556.22;5016139;28;19930;-80
2023/08/01 10:34:03;;;;;;;;;;;;;;;28.08;45.98;99555.03;4997015;28;20388;-82
2023/08/01 10:36:29;;;;;;;;;;;;;;;28.11;45.93;99548.75;5007173;28;19932;-83
2023/08/01 10:38:58;;;;;;;;;;;;;;;28.18;45.97;99542.44;5019642;28;20888;-84
2023/08/01 10:41:34;;;;;;;;;;;;;;;28.18;45.35;99542.44;5019402;28;19966;-82
2023/08/01 10:44:05;;;;;;;;;;;;;;;28.18;45.27;99540.47;5018215;28;19925;-81
2023/08/01 10:46:44;;;;;;;;;;;;;;;28.13;45.39;99549.13;5018829;28;19944;-83
2023/08/01 10:49:10;;;;;;;;;;;;;;;28.24;45.45;99538.91;4996596;28;19929;-83
2023/08/01 10:51:35;;;;;;;;;;;;;;;28.30;44.96;99536.53;5022292;28;19932;-82
2023/08/01 10:54:01;;;;;;;;;;;;;;;28.34;44.88;99536.53;5007546;28;20399;-82
2023/08/01 10:56:26;;;;;;;;;;;;;;;28.40;44.92;99529.47;5019543;28;19921;-82
2023/08/01 10:58:51;;;;;;;;;;;;;;;28.52;44.65;99524.28;5026252;28;20317;-82
2023/08/01 11:01:17;;;;;;;;;;;;;;;28.64;44.57;99533.31;5022205;28;19921;-83
2023/08/01 11:03:44;;;;;;;;;;;;;;;28.75;44.12;99531.31;5017911;28;20461;-84
2023/08/01 11:06:09;;;;;;;;;;;;;;;28.89;44.14;99528.50;5012481;28;19923;-82
2023/08/01 11:08:39;;;;;;;;;;;;;;;29.05;43.77;99539.84;5025166;28;20363;-83
2023/08/01 11:11:08;;;;;;;;;;;;;;;29.14;43.38;99523.66;5029388;28;19929;-84
2023/08/01 11:13:34;;;;;;;;;;;;;;;29.11;42.90;99520.94;5010799;28;20359;-83
2023/08/01 11:16:03;;;;;;;;;;;;;;;29.11;43.15;99505.16;5006951;28;20628;-81
2023/08/01 11:18:29;;;;;;;;;;;;;;;29.03;43.21;99519.38;5020795;28;19994;-82
2023/08/01 11:20:54;;;;;;;;;;;;;;;28.96;43.19;99511.16;5025069;28;20365;-81
2023/08/01 11:23:27;;;;;;;;;;;;;;;28.89;43.27;99528.50;5025654;28;21668;-82
2023/08/01 11:25:54;;;;;;;;;;;;;;;28.74;43.20;99518.72;5016716;28;19922;-81
2023/08/01 11:28:19;;;;;;;;;;;;;;;28.66;43.41;99517.16;5021057;28;19921;-82
2023/08/01 11:30:45;;;;;;;;;;;;;;;28.58;43.31;99525.47;5020713;28;19940;-84
2023/08/01 11:33:21;;;;;;;;;;;;;;;28.56;43.57;99519.56;5023628;28;19921;-86
2023/08/01 11:35:50;;;;;;;;;;;;;;;28.59;43.60;99521.53;5007105;28;20491;-85
2023/08/01 11:38:15;;;;;;;;;;;;;;;28.55;43.38;99531.78;5018553;28;19948;-84
2023/08/01 11:40:41;;;;;;;;;;;;;;;28.46;43.31;99531.41;5029293;28;20352;-82
2023/08/01 11:43:06;;;;;;;;;;;;;;;28.29;43.53;99529.47;5027139;28;19927;-82
2023/08/01 11:45:32;;;;;;;;;;;;;;;28.19;44.11;99544.03;5022082;28;19932;-82
2023/08/01 11:47:57;;;;;;;;;;;;;;;28.17;43.74;99549.13;5025361;28;19917;-83
2023/08/01 11:50:24;;;;;;;;;;;;;;;28.16;43.46;99553.06;5019435;28;19921;-83
2023/08/01 11:52:49;;;;;;;;;;;;;;;28.12;43.86;99552.28;5024447;28;19947;-84
2023/08/01 11:55:18;;;;;;;;;;;;;;;28.10;43.31;99560.16;5020152;28;20380;-83
2023/08/01 11:57:51;;;;;;;;;;;;;;;28.05;43.54;99563.31;5021243;28;19960;-81
2023/08/01 12:00:20;;;;;;;;;;;;;;;27.87;43.81;99582.59;5022153;28;19921;-80
2023/08/01 12:02:46;;;;;;;;;;;;;;;27.59;44.15;99575.06;5024177;28;20450;-82
2023/08/01 12:05:11;;;;;;;;;;;;;;;27.29;45.17;99567.13;5021179;28;19921;-82
2023/08/01 12:07:37;;;;;;;;;;;;;;;27.24;45.64;99567.50;5024463;28;20028;-83
2023/08/01 12:10:02;;;;;;;;;;;;;;;27.28;45.58;99577.34;5007160;28;19963;-84
2023/08/01 12:12:28;;;;;;;;;;;;;;;27.25;45.37;99577.34;5018906;28;19955;-83
2023/08/01 12:14:54;;;;;;;;;;;;;;;27.09;45.90;99581.22;5022659;28;19971;-84
2023/08/01 12:17:19;;;;;;;;;;;;;;;26.94;46.13;99592.53;5021357;28;19921;-84
2023/08/01 12:19:45;;;;;;;;;;;;;;;26.80;46.30;99596.00;5023372;28;19917;-84
2023/08/01 12:22:11;;;;;;;;;;;;;;;26.76;46.40;99595.19;5023696;28;19921;-84
2023/08/01 12:24:37;;;;;;;;;;;;;;;26.75;46.50;99601.84;5025033;28;19925;-84
2023/08/01 12:27:04;;;;;;;;;;;;;;;26.78;46.44;99603.84;5023615;28;19924;-83
2023/08/01 12:29:30;;;;;;;;;;;;;;;26.76;46.80;99608.94;5016120;28;20060;-84
2023/08/01 12:31:55;;;;;;;;;;;;;;;26.77;46.75;99603.03;5020931;28;19928;-83
2023/08/01 12:34:20;;;;;;;;;;;;;;;26.75;46.86;99597.16;5022887;28;20023;-82
2023/08/01 12:36:45;;;;;;;;;;;;;;;26.68;47.23;99599.84;5003175;28;20405;-84
2023/08/01 12:39:11;;;;;;;;;;;;;;;26.76;47.19;99600.69;5023297;28;20028;-84
2023/08/01 12:41:37;;;;;;;;;;;;;;;26.86;46.96;99596.41;5028270;28;19928;-83
2023/08/01 12:44:03;;;;;;;;;;;;;;;26.98;47.25;99602.34;5029611;28;19917;-83
2023/08/01 12:46:28;;;;;;;;;;;;;;;27.14;46.52;99604.81;5004893;28;19931;-83